createdAt,value
2022-08-29T00:02:03.536Z,20.90
2022-08-29T00:05:08.095Z,20.90
2022-08-29T00:08:11.398Z,20.90
2022-08-29T00:11:14.998Z,20.90
2022-08-29T00:14:23.475Z,20.90
2022-08-29T00:17:26.884Z,20.90
2022-08-29T00:20:34.167Z,20.90
2022-08-29T00:23:37.893Z,21.00
2022-08-29T00:26:40.990Z,21.00
2022-08-29T00:29:45.456Z,21.00
2022-08-29T00:32:48.971Z,21.00
2022-08-29T00:35:52.085Z,21.00
2022-08-29T00:38:55.216Z,20.90
2022-08-29T00:42:01.459Z,20.90
2022-08-29T00:45:07.776Z,20.90
2022-08-29T00:48:15.797Z,20.90
2022-08-29T00:51:20.758Z,20.90
2022-08-29T00:54:24.873Z,20.90
2022-08-29T00:57:31.670Z,20.90
2022-08-29T01:00:36.888Z,21.00
2022-08-29T01:03:42.963Z,21.00
2022-08-29T01:06:46.779Z,21.10
2022-08-29T01:09:49.968Z,21.10
2022-08-29T01:12:52.134Z,21.10
2022-08-29T01:15:57.543Z,21.10
2022-08-29T01:19:04.396Z,21.10
2022-08-29T01:22:16.255Z,20.90
2022-08-29T01:25:23.190Z,20.90
2022-08-29T01:28:29.784Z,20.80
2022-08-29T01:31:57.229Z,20.80
2022-08-29T01:35:01.103Z,20.80
2022-08-29T01:38:04.273Z,20.70
2022-08-29T01:41:10.375Z,20.80
2022-08-29T01:44:17.415Z,20.70
2022-08-29T01:47:21.798Z,20.60
2022-08-29T01:50:24.877Z,20.60
2022-08-29T01:53:27.995Z,20.60
2022-08-29T01:56:34.868Z,20.50
2022-08-29T01:59:38.404Z,20.50
2022-08-29T02:02:43.404Z,20.40
2022-08-29T02:05:47.567Z,20.50
2022-08-29T02:08:50.685Z,20.50
2022-08-29T02:11:56.080Z,20.40
2022-08-29T02:14:59.186Z,20.40
2022-08-29T02:18:02.303Z,20.40
2022-08-29T02:21:06.019Z,20.40
2022-08-29T02:24:24.361Z,20.40
2022-08-29T02:27:32.073Z,20.40
2022-08-29T02:30:35.402Z,20.40
2022-08-29T02:33:39.233Z,20.40
2022-08-29T02:36:42.988Z,20.40
2022-08-29T02:39:47.743Z,20.50
2022-08-29T02:42:53.875Z,20.60
2022-08-29T02:45:57.227Z,20.60
2022-08-29T02:49:01.298Z,20.70
2022-08-29T02:52:06.771Z,20.60
2022-08-29T02:55:12.608Z,20.60
2022-08-29T02:58:17.578Z,20.60
2022-08-29T03:01:22.710Z,20.60
2022-08-29T03:04:25.837Z,20.60
2022-08-29T03:07:29.290Z,20.50
2022-08-29T03:10:32.433Z,20.50
2022-08-29T03:13:37.098Z,20.50
2022-08-29T03:16:40.470Z,20.40
2022-08-29T03:19:43.597Z,20.40
2022-08-29T03:22:47.628Z,20.40
2022-08-29T03:25:51.108Z,20.40
2022-08-29T03:28:55.617Z,20.40
2022-08-29T03:31:58.796Z,20.50
2022-08-29T03:35:01.969Z,20.40
2022-08-29T03:38:05.072Z,20.50
2022-08-29T03:41:09.610Z,20.50
2022-08-29T03:44:14.104Z,20.50
2022-08-29T03:47:17.302Z,20.50
2022-08-29T03:50:21.025Z,20.50
2022-08-29T03:53:24.245Z,20.50
2022-08-29T03:56:28.947Z,20.50
2022-08-29T03:59:33.658Z,20.50
2022-08-29T04:02:36.991Z,20.50
2022-08-29T04:05:40.174Z,20.50
2022-08-29T04:08:43.540Z,20.50
2022-08-29T04:11:46.669Z,20.50
2022-08-29T04:14:51.170Z,20.60
2022-08-29T04:17:55.685Z,20.50
2022-08-29T04:21:03.554Z,20.50
2022-08-29T04:24:07.092Z,20.50
2022-08-29T04:27:10.216Z,20.50
2022-08-29T04:30:17.736Z,20.40
2022-08-29T04:33:22.706Z,20.40
2022-08-29T04:36:26.188Z,20.40
2022-08-29T04:39:29.331Z,20.40
2022-08-29T04:42:32.430Z,20.40
2022-08-29T04:45:37.269Z,20.30
2022-08-29T04:48:40.389Z,20.30
2022-08-29T04:51:43.475Z,20.40
2022-08-29T04:54:46.910Z,20.40
2022-08-29T04:57:51.515Z,20.40
2022-08-29T05:00:55.994Z,20.40
2022-08-29T05:03:59.230Z,20.50
2022-08-29T05:07:03.049Z,20.60
2022-08-29T05:10:09.351Z,20.60
2022-08-29T05:13:12.517Z,20.70
2022-08-29T05:16:19.003Z,20.80
2022-08-29T05:19:22.119Z,20.80
2022-08-29T05:22:25.248Z,20.90
2022-08-29T05:25:28.335Z,20.90
2022-08-29T05:28:35.565Z,21.00
2022-08-29T05:31:42.185Z,21.10
2022-08-29T05:34:49.162Z,21.20
2022-08-29T05:37:52.373Z,21.20
2022-08-29T05:40:55.469Z,21.20
2022-08-29T05:43:59.198Z,21.20
2022-08-29T05:47:04.563Z,21.30
2022-08-29T05:50:08.902Z,21.30
2022-08-29T05:53:13.083Z,21.40
2022-08-29T05:56:23.410Z,21.50
2022-08-29T05:59:26.525Z,21.60
2022-08-29T06:02:31.109Z,21.70
2022-08-29T06:05:34.256Z,21.80
2022-08-29T06:08:37.365Z,22.00
2022-08-29T06:11:40.539Z,22.00
2022-08-29T06:14:50.064Z,22.40
2022-08-29T06:17:55.458Z,23.70
2022-08-29T06:20:58.543Z,25.00
2022-08-29T06:24:01.674Z,26.40
2022-08-29T06:27:05.135Z,27.40
2022-08-29T06:30:09.038Z,28.20
2022-08-29T06:33:13.618Z,29.10
2022-08-29T06:36:16.749Z,29.10
2022-08-29T06:39:20.819Z,29.30
2022-08-29T06:42:25.666Z,29.80
2022-08-29T06:45:31.957Z,30.60
2022-08-29T06:48:36.660Z,31.60
2022-08-29T06:51:42.073Z,31.90
2022-08-29T06:54:45.174Z,32.00
2022-08-29T06:57:49.698Z,32.70
2022-08-29T07:00:52.802Z,33.90
2022-08-29T07:03:58.967Z,34.40
2022-08-29T07:07:02.044Z,34.50
2022-08-29T07:10:05.778Z,35.30
2022-08-29T07:13:08.871Z,36.10
2022-08-29T07:16:14.871Z,36.00
2022-08-29T07:19:19.435Z,36.40
2022-08-29T07:22:22.607Z,37.00
2022-08-29T07:25:27.679Z,37.10
2022-08-29T07:28:34.864Z,37.40
2022-08-29T07:31:40.877Z,37.00
2022-08-29T07:34:45.525Z,38.00
2022-08-29T07:37:50.836Z,39.10
2022-08-29T07:40:59.408Z,39.60
2022-08-29T07:44:02.701Z,40.60
2022-08-29T07:47:06.104Z,41.10
2022-08-29T07:50:12.851Z,40.00
2022-08-29T07:53:16.331Z,40.40
2022-08-29T07:56:23.040Z,41.20
2022-08-29T07:59:27.883Z,41.80
2022-08-29T08:02:31.078Z,42.50
2022-08-29T08:05:36.715Z,43.20
2022-08-29T08:08:41.365Z,43.60
2022-08-29T08:11:44.810Z,44.10
2022-08-29T08:14:47.954Z,44.70
2022-08-29T08:17:51.041Z,44.30
2022-08-29T08:20:55.575Z,44.60
2022-08-29T08:23:59.153Z,44.90
2022-08-29T08:27:02.294Z,44.90
2022-08-29T08:30:06.024Z,45.00
2022-08-29T08:33:09.982Z,43.90
2022-08-29T08:36:21.021Z,45.00
2022-08-29T08:39:24.133Z,41.10
2022-08-29T08:42:36.141Z,40.30
2022-08-29T08:45:42.105Z,42.30
2022-08-29T08:48:46.926Z,44.10
2022-08-29T08:51:55.106Z,45.00
2022-08-29T08:55:03.082Z,45.60
2022-08-29T08:58:14.931Z,45.90
2022-08-29T09:01:23.174Z,45.90
2022-08-29T09:04:38.209Z,45.50
2022-08-29T09:07:54.269Z,45.50
2022-08-29T09:11:03.223Z,46.50
2022-08-29T09:14:14.944Z,46.30
2022-08-29T09:17:23.052Z,46.70
2022-08-29T09:20:29.768Z,45.70
2022-08-29T09:23:41.160Z,44.90
2022-08-29T09:26:47.633Z,42.50
2022-08-29T09:29:55.411Z,41.20
2022-08-29T09:33:03.062Z,41.90
2022-08-29T09:36:06.595Z,42.30
2022-08-29T09:39:18.500Z,42.00
2022-08-29T09:42:24.503Z,41.40
2022-08-29T09:45:27.867Z,40.50
2022-08-29T09:48:35.402Z,39.90
2022-08-29T09:51:41.117Z,37.90
2022-08-29T09:54:45.809Z,36.90
2022-08-29T09:57:54.884Z,36.50
2022-08-29T10:01:04.521Z,36.20
2022-08-29T10:04:09.837Z,35.30
2022-08-29T10:07:17.859Z,35.20
2022-08-29T10:10:24.221Z,34.90
2022-08-29T10:13:34.320Z,34.50
2022-08-29T10:16:49.729Z,34.00
2022-08-29T10:19:52.884Z,33.50
2022-08-29T10:23:02.055Z,33.00
2022-08-29T10:26:13.375Z,32.30
2022-08-29T10:29:31.605Z,31.80
2022-08-29T10:32:56.670Z,31.60
2022-08-29T10:36:02.827Z,31.30
2022-08-29T10:39:14.895Z,30.60
2022-08-29T10:42:22.423Z,29.90
2022-08-29T10:45:36.386Z,29.30
2022-08-29T10:48:49.111Z,28.80
2022-08-29T10:52:02.724Z,28.40
2022-08-29T10:55:16.378Z,28.10
2022-08-29T10:58:32.374Z,27.80
2022-08-29T11:01:41.583Z,27.50
2022-08-29T11:04:51.883Z,27.30
2022-08-29T11:08:02.582Z,26.80
2022-08-29T11:11:05.809Z,26.60
2022-08-29T11:14:20.504Z,26.40
2022-08-29T11:17:26.528Z,26.20
2022-08-29T11:20:35.390Z,26.00
2022-08-29T11:23:40.715Z,25.90
2022-08-29T11:26:53.639Z,25.80
2022-08-29T11:30:05.005Z,25.70
2022-08-29T11:33:18.588Z,25.70
2022-08-29T11:36:33.244Z,25.70
2022-08-29T11:39:51.880Z,25.70
2022-08-29T11:42:55.713Z,25.50
2022-08-29T11:46:02.747Z,25.30
2022-08-29T11:49:36.240Z,25.10
2022-08-29T11:52:54.773Z,24.90
2022-08-29T11:56:27.911Z,24.80
2022-08-29T11:59:58.693Z,24.80
2022-08-29T12:03:07.224Z,24.60
2022-08-29T12:06:40.770Z,24.60
2022-08-29T12:09:52.565Z,24.50
2022-08-29T12:12:57.599Z,24.40
2022-08-29T12:16:09.311Z,24.40
2022-08-29T12:19:36.000Z,24.30
2022-08-29T12:22:56.631Z,24.20
2022-08-29T12:26:22.169Z,24.20
2022-08-29T12:29:27.060Z,24.20
2022-08-29T12:32:43.068Z,24.20
2022-08-29T12:36:07.477Z,24.20
2022-08-29T12:39:41.260Z,24.20
2022-08-29T12:42:53.680Z,24.20
2022-08-29T12:45:57.936Z,24.20
2022-08-29T12:49:08.606Z,24.20
2022-08-29T12:52:24.794Z,24.20
2022-08-29T12:55:30.482Z,24.10
2022-08-29T12:58:46.539Z,24.10
2022-08-29T13:01:54.236Z,24.10
2022-08-29T13:04:59.783Z,24.30
2022-08-29T13:08:11.047Z,24.50
2022-08-29T13:11:21.593Z,24.60
2022-08-29T13:14:24.763Z,24.90
2022-08-29T13:17:30.747Z,25.30
2022-08-29T13:20:47.948Z,25.70
2022-08-29T13:24:02.156Z,26.00
2022-08-29T13:27:09.186Z,26.30
2022-08-29T13:30:23.125Z,26.60
2022-08-29T13:33:34.953Z,27.00
2022-08-29T13:36:42.574Z,27.30
2022-08-29T13:39:48.675Z,27.50
2022-08-29T13:42:51.821Z,27.70
2022-08-29T13:46:03.912Z,28.00
2022-08-29T13:49:08.549Z,28.20
2022-08-29T13:52:12.907Z,28.30
2022-08-29T13:55:17.571Z,28.40
2022-08-29T13:58:22.631Z,28.50
2022-08-29T14:02:08.592Z,28.30
2022-08-29T14:04:49.376Z,28.40
2022-08-29T14:07:52.592Z,28.30
2022-08-29T14:10:57.138Z,28.30
2022-08-29T14:14:00.227Z,28.10
2022-08-29T14:17:03.666Z,28.20
2022-08-29T14:20:09.592Z,28.20
2022-08-29T14:23:12.710Z,28.00
2022-08-29T14:26:17.464Z,28.10
2022-08-29T14:29:20.615Z,28.10
2022-08-29T14:32:24.331Z,27.90
2022-08-29T14:35:31.837Z,27.70
2022-08-29T14:38:35.364Z,27.70
2022-08-29T14:41:41.263Z,27.60
2022-08-29T14:44:44.387Z,27.60
2022-08-29T14:47:47.568Z,27.60
2022-08-29T14:50:51.829Z,27.50
2022-08-29T14:53:55.050Z,27.40
2022-08-29T14:56:59.678Z,27.20
2022-08-29T15:00:02.985Z,27.10
2022-08-29T15:03:06.210Z,27.20
2022-08-29T15:06:09.626Z,27.10
2022-08-29T15:09:12.783Z,26.90
2022-08-29T15:12:18.216Z,26.80
2022-08-29T15:15:28.419Z,26.80
2022-08-29T15:19:24.576Z,26.80
2022-08-29T15:21:54.741Z,26.90
2022-08-29T15:24:59.762Z,27.00
2022-08-29T15:28:05.673Z,27.00
2022-08-29T15:31:09.156Z,27.10
2022-08-29T15:34:12.420Z,27.10
2022-08-29T15:37:15.807Z,27.10
2022-08-29T15:40:19.590Z,27.20
2022-08-29T15:43:24.150Z,27.20
2022-08-29T15:46:27.402Z,27.20
2022-08-29T15:49:30.631Z,27.20
2022-08-29T15:52:36.036Z,27.10
2022-08-29T15:55:43.771Z,27.10
2022-08-29T15:58:49.571Z,27.00
2022-08-29T16:01:56.014Z,27.00
2022-08-29T16:05:00.185Z,26.90
2022-08-29T16:08:03.669Z,26.90
2022-08-29T16:11:07.622Z,26.90
2022-08-29T16:14:57.480Z,26.80
2022-08-29T16:17:36.365Z,26.80
2022-08-29T16:20:41.604Z,26.60
2022-08-29T16:23:45.036Z,26.60
2022-08-29T16:26:48.147Z,26.60
2022-08-29T16:29:53.135Z,26.70
2022-08-29T16:32:56.967Z,26.80
2022-08-29T16:36:00.397Z,26.70
2022-08-29T16:39:03.576Z,26.60
2022-08-29T16:42:07.028Z,26.50
2022-08-29T16:45:13.000Z,26.40
2022-08-29T16:48:17.753Z,26.40
2022-08-29T16:51:23.927Z,26.30
2022-08-29T16:54:27.342Z,26.20
2022-08-29T16:57:30.450Z,26.10
2022-08-29T17:00:34.977Z,26.00
2022-08-29T17:03:38.121Z,25.90
2022-08-29T17:06:41.916Z,25.70
2022-08-29T17:09:43.890Z,25.70
2022-08-29T17:12:45.916Z,25.70
2022-08-29T17:15:49.314Z,25.60
2022-08-29T17:18:53.265Z,25.50
2022-08-29T17:21:56.654Z,25.40
2022-08-29T17:24:59.867Z,25.30
2022-08-29T17:28:19.034Z,25.30
2022-08-29T17:31:23.806Z,25.20
2022-08-29T17:34:27.403Z,25.00
2022-08-29T17:37:36.024Z,24.90
2022-08-29T17:40:40.373Z,24.80
2022-08-29T17:43:47.351Z,24.70
2022-08-29T17:46:52.234Z,24.60
2022-08-29T17:49:55.525Z,24.60
2022-08-29T17:52:58.754Z,24.60
2022-08-29T17:56:12.963Z,24.50
2022-08-29T17:59:17.894Z,24.40
2022-08-29T18:02:22.451Z,24.30
2022-08-29T18:05:25.982Z,24.30
2022-08-29T18:08:29.124Z,24.20
2022-08-29T18:11:32.453Z,24.10
2022-08-29T18:14:35.604Z,24.10
2022-08-29T18:17:40.571Z,24.10
2022-08-29T18:20:43.816Z,24.00
2022-08-29T18:23:47.653Z,23.90
2022-08-29T18:26:51.518Z,23.90
2022-08-29T18:29:54.870Z,23.80
2022-08-29T18:33:01.205Z,23.80
2022-08-29T18:36:07.200Z,23.70
2022-08-29T18:39:11.709Z,23.70
2022-08-29T18:42:36.892Z,23.60
2022-08-29T18:45:39.246Z,23.50
2022-08-29T18:48:44.967Z,23.50
2022-08-29T18:51:48.412Z,23.50
2022-08-29T18:54:51.615Z,23.30
2022-08-29T18:57:55.880Z,23.30
2022-08-29T19:01:00.092Z,23.20
2022-08-29T19:04:04.856Z,23.20
2022-08-29T19:07:07.968Z,23.20
2022-08-29T19:10:12.400Z,23.20
2022-08-29T19:13:16.778Z,23.10
2022-08-29T19:16:21.264Z,23.10
2022-08-29T19:19:26.140Z,23.00
2022-08-29T19:22:29.070Z,22.90
2022-08-29T19:25:32.672Z,22.90
2022-08-29T19:28:36.612Z,22.80
2022-08-29T19:31:40.151Z,22.70
2022-08-29T19:34:50.289Z,22.70
2022-08-29T19:37:54.162Z,22.60
2022-08-29T19:40:59.310Z,22.60
2022-08-29T19:44:02.502Z,22.60
2022-08-29T19:47:07.001Z,22.60
2022-08-29T19:50:14.691Z,22.50
2022-08-29T19:53:24.566Z,22.40
2022-08-29T19:56:29.983Z,22.40
2022-08-29T19:59:33.128Z,22.40
2022-08-29T20:02:36.479Z,22.30
2022-08-29T20:05:41.063Z,22.20
2022-08-29T20:08:46.766Z,22.20
2022-08-29T20:11:50.810Z,22.10
2022-08-29T20:14:54.005Z,22.00
2022-08-29T20:17:57.462Z,21.90
2022-08-29T20:21:01.999Z,21.80
2022-08-29T20:24:05.933Z,21.80
2022-08-29T20:27:09.075Z,21.80
2022-08-29T20:30:17.118Z,21.80
2022-08-29T20:33:20.322Z,21.80
2022-08-29T20:36:42.922Z,21.80
2022-08-29T20:39:47.849Z,21.80
2022-08-29T20:42:50.963Z,21.70
2022-08-29T20:45:54.566Z,21.70
2022-08-29T20:49:01.687Z,21.60
2022-08-29T20:52:07.078Z,21.60
2022-08-29T20:55:11.616Z,21.60
2022-08-29T20:58:14.751Z,21.50
2022-08-29T21:01:17.891Z,21.50
2022-08-29T21:04:38.658Z,21.50
2022-08-29T21:07:46.987Z,21.50
2022-08-29T21:10:52.356Z,21.60
2022-08-29T21:13:55.663Z,21.50
2022-08-29T21:16:59.487Z,21.50
2022-08-29T21:20:02.681Z,21.50
2022-08-29T21:23:08.310Z,21.50
2022-08-29T21:26:12.849Z,21.50
2022-08-29T21:29:16.073Z,21.50
2022-08-29T21:32:22.422Z,21.50
2022-08-29T21:35:25.708Z,21.40
2022-08-29T21:38:30.513Z,21.40
2022-08-29T21:41:34.160Z,21.50
2022-08-29T21:44:37.474Z,21.50
2022-08-29T21:47:40.599Z,21.50
2022-08-29T21:50:43.758Z,21.50
2022-08-29T21:53:50.626Z,21.50
2022-08-29T21:56:54.024Z,21.40
2022-08-29T21:59:57.145Z,21.50
2022-08-29T22:03:00.908Z,21.40
2022-08-29T22:06:04.628Z,21.40
2022-08-29T22:09:11.750Z,21.40
2022-08-29T22:12:14.851Z,21.40
2022-08-29T22:15:35.827Z,21.30
2022-08-29T22:18:38.959Z,21.30
2022-08-29T22:21:43.996Z,21.40
2022-08-29T22:24:48.469Z,21.30
2022-08-29T22:27:51.907Z,21.30
2022-08-29T22:30:55.062Z,21.30
2022-08-29T22:33:58.576Z,21.30
2022-08-29T22:37:01.671Z,21.30
2022-08-29T22:40:08.051Z,21.30
2022-08-29T22:43:11.205Z,21.30
2022-08-29T22:46:16.719Z,21.20
2022-08-29T22:49:19.884Z,21.20
2022-08-29T22:52:23.403Z,21.10
2022-08-29T22:58:29.921Z,21.00
2022-08-29T23:01:38.209Z,21.00
2022-08-29T23:04:41.808Z,20.90
2022-08-29T23:07:45.249Z,20.80
2022-08-29T23:10:49.696Z,20.80
2022-08-29T23:13:53.997Z,20.80
2022-08-29T23:16:57.228Z,20.80
2022-08-29T23:20:00.361Z,20.80
2022-08-29T23:23:03.786Z,20.90
2022-08-29T23:26:13.459Z,20.80
2022-08-29T23:29:16.561Z,20.80
2022-08-29T23:32:19.751Z,20.80
2022-08-29T23:35:23.110Z,20.80
2022-08-29T23:38:26.317Z,20.80
2022-08-29T23:41:33.782Z,20.80
2022-08-29T23:44:37.002Z,20.70
2022-08-29T23:47:40.115Z,20.70
2022-08-29T23:50:43.329Z,20.70
2022-08-29T23:53:50.630Z,20.70
2022-08-29T23:56:55.085Z,20.70
